Time;durP1;ratioP1;P1;durP2;ratioP2;P2;SDS_P1;SDS_P2;PMS_P1;PMS_P2;Temp;Humidity;BMP_temperature;BMP_pressure;BME280_temperature;BME280_humidity;BME280_pressure;Samples;Min_cycle;Max_cycle;Signal;HPM_P1;HPM_P2
2023/01/26 00:06:05;;;;;;;2.95;1.90;;;;;;;16.23;63.15;102113.69;20141722;29;20057;-93
2023/01/26 00:16:09;;;;;;;2.70;1.95;;;;;;;16.28;63.04;102121.50;20140793;29;20049;-93
2023/01/26 00:26:14;;;;;;;3.25;1.95;;;;;;;16.28;62.99;102105.38;20155256;29;20540;-93
2023/01/26 00:36:16;;;;;;;;;;;;;;;16.29;63.06;102099.03;20156119;29;20112;-93
2023/01/26 00:46:17;;;;;;;2.75;2.10;;;;;;;16.23;63.03;102086.84;20155870;29;19923;-94
2023/01/26 00:56:19;;;;;;;3.00;2.05;;;;;;;16.27;62.93;102074.94;20154001;29;20055;-95
2023/01/26 01:06:20;;;;;;;2.15;1.90;;;;;;;16.08;62.84;102054.59;20141775;29;20416;-93
2023/01/26 01:16:24;;;;;;;2.78;2.13;;;;;;;16.27;62.84;102071.41;20144284;29;20145;-93
2023/01/26 01:26:26;;;;;;;2.30;1.73;;;;;;;16.28;62.91;102081.19;20138762;29;20456;-95
2023/01/26 01:36:30;;;;;;;2.20;1.60;;;;;;;16.26;62.86;102073.19;20151092;29;20087;-93
2023/01/26 01:46:33;;;;;;;2.33;1.75;;;;;;;15.94;62.85;102017.00;20166806;29;20064;-94
2023/01/26 01:56:37;;;;;;;2.08;1.70;;;;;;;16.26;62.59;102059.78;20162170;29;20527;-93
2023/01/26 02:06:46;;;;;;;2.42;1.92;;;;;;;16.26;62.72;102054.41;20151515;29;20049;-92
2023/01/26 02:16:48;;;;;;;3.03;2.28;;;;;;;16.06;62.64;102026.09;20144490;29;20107;-94
2023/01/26 02:26:50;;;;;;;2.30;1.98;;;;;;;16.22;62.65;102044.81;20150547;29;20065;-94
2023/01/26 02:36:59;;;;;;;1.70;1.60;;;;;;;16.26;62.79;102059.78;20139807;29;20053;-93
2023/01/26 02:47:09;;;;;;;1.70;1.40;;;;;;;16.15;62.60;102052.41;20141187;29;20049;-94
2023/01/26 02:57:11;;;;;;;2.35;1.95;;;;;;;16.25;62.56;102063.41;20145212;29;20089;-93
2023/01/26 03:07:13;;;;;;;1.65;1.55;;;;;;;16.24;62.50;102062.56;20151999;29;20063;-93
2023/01/26 03:17:14;;;;;;;2.22;1.80;;;;;;;16.25;62.53;102060.72;20152116;29;20053;-94
2023/01/26 03:27:25;;;;;;;1.65;1.55;;;;;;;16.03;62.36;102019.13;20136832;29;20091;-94
2023/01/26 03:37:33;;;;;;;1.83;1.73;;;;;;;16.23;62.61;102049.22;20142915;29;20057;-92
2023/01/26 03:57:58;;;;;;;1.45;1.35;;;;;;;16.23;62.69;102042.03;20131885;29;20064;-94
2023/01/26 04:28:43;;;;;;;1.52;1.30;;;;;;;16.24;62.75;102040.19;20191919;29;20053;-93
2023/01/26 04:38:45;;;;;;;1.90;1.42;;;;;;;16.24;62.99;102037.50;20228964;29;20049;-92
2023/01/26 04:48:50;;;;;;;1.77;1.40;;;;;;;16.23;62.93;102027.72;20199170;29;20049;-94
2023/01/26 04:58:52;;;;;;;1.40;1.20;;;;;;;16.23;62.96;102022.34;20191152;29;20045;-92
2023/01/26 05:08:56;;;;;;;1.40;1.30;;;;;;;16.19;63.07;102007.38;20195748;29;20057;-93
2023/01/26 05:18:58;;;;;;;1.20;1.10;;;;;;;16.23;63.05;102012.47;20150521;29;20159;-93
2023/01/26 05:29:11;;;;;;;1.30;1.20;;;;;;;16.19;63.14;101991.25;20120913;29;20045;-93
2023/01/26 05:39:12;;;;;;;1.23;1.13;;;;;;;16.23;63.17;102017.84;20124567;29;20508;-93
2023/01/26 05:49:14;;;;;;;1.23;1.13;;;;;;;16.23;63.37;102027.72;20127849;29;20131;-93
2023/01/26 05:59:15;;;;;;;1.23;1.10;;;;;;;16.21;63.38;102029.66;20122631;29;20049;-93
2023/01/26 06:09:17;;;;;;;1.25;1.15;;;;;;;16.24;63.31;102040.19;20136740;29;20056;-92
2023/01/26 06:19:36;;;;;;;0.95;0.95;;;;;;;16.23;63.31;102035.78;20140803;29;20408;-92
2023/01/26 06:29:38;;;;;;;1.13;1.00;;;;;;;16.12;63.54;102020.34;20144595;29;20104;-91
2023/01/26 06:39:41;;;;;;;1.00;0.90;;;;;;;16.22;63.55;102042.13;20135430;29;20048;-90
2023/01/26 06:49:42;;;;;;;1.17;1.08;;;;;;;15.99;63.39;102004.16;20135481;29;20445;-91
2023/01/26 06:59:46;;;;;;;1.30;1.20;;;;;;;16.16;63.35;102037.13;20149977;29;20081;-91
2023/01/26 07:10:09;;;;;;;1.20;1.10;;;;;;;16.00;63.82;102023.81;20146419;29;20075;-92
2023/01/26 07:20:12;;;;;;;1.23;1.10;;;;;;;16.08;63.69;102041.19;20158034;29;20045;-92
2023/01/26 07:30:14;;;;;;;0.90;0.90;;;;;;;16.22;63.74;102083.31;20134796;29;20050;-92
2023/01/26 07:40:16;;;;;;;1.15;1.05;;;;;;;16.14;63.71;102071.28;20270486;23;20087;-94
2023/01/26 07:50:19;;;;;;;0.90;0.90;;;;;;;16.04;63.85;102071.00;20238643;29;20056;-93
2023/01/26 08:00:21;;;;;;;1.20;1.05;;;;;;;16.22;63.51;102110.16;20248884;29;20491;-94
2023/01/26 08:10:23;;;;;;;2.83;1.05;;;;;;;16.23;63.77;102102.97;20237557;29;20523;-95
2023/01/26 08:20:24;;;;;;;1.40;1.00;;;;;;;16.22;63.49;102111.97;20210466;29;20059;-93
2023/01/26 08:30:26;;;;;;;1.38;1.10;;;;;;;16.21;63.70;102108.44;20184028;29;20060;-95
2023/01/26 08:40:27;;;;;;;1.05;0.82;;;;;;;16.23;63.46;102121.75;20212671;29;20045;-96
2023/01/26 08:50:29;;;;;;;1.50;1.27;;;;;;;16.21;63.66;102108.44;20237867;29;20052;-94
2023/01/26 09:00:30;;;;;;;0.82;0.82;;;;;;;16.22;63.66;102118.22;20227073;29;20053;-94
2023/01/26 09:10:32;;;;;;;1.08;0.98;;;;;;;16.23;63.81;102119.06;20221465;29;20530;-95
2023/01/26 09:20:34;;;;;;;1.20;1.10;;;;;;;16.25;63.56;102122.53;20240666;29;20056;-94
2023/01/26 09:30:35;;;;;;;1.52;1.25;;;;;;;16.26;63.78;102124.25;20163456;29;20555;-93
2023/01/26 09:40:48;;;;;;;2.10;1.20;;;;;;;16.27;63.60;102120.59;20164599;29;20059;-91
2023/01/26 09:51:14;;;;;;;1.63;1.15;;;;;;;16.27;63.70;102135.88;20164742;29;20508;-95
2023/01/26 10:01:23;;;;;;;1.08;0.98;;;;;;;16.27;63.90;102142.09;20182392;29;20539;-91
2023/01/26 10:11:31;;;;;;;1.50;1.13;;;;;;;16.23;63.82;102129.81;20193918;29;20060;-95
2023/01/26 10:21:37;;;;;;;1.73;1.42;;;;;;;16.28;63.79;102138.47;20158487;29;20108;-94
2023/01/26 10:31:39;;;;;;;1.10;0.90;;;;;;;16.03;63.74;102097.00;20185781;29;20080;-92
2023/01/26 10:41:55;;;;;;;1.80;1.13;;;;;;;16.24;63.67;102134.25;20202133;29;20052;-96
2023/01/26 10:52:06;;;;;;;1.48;1.13;;;;;;;16.00;63.89;102083.78;20205987;29;20045;-95
2023/01/26 11:02:10;;;;;;;2.03;1.10;;;;;;;16.28;63.80;102127.72;20181992;29;20052;-96
2023/01/26 11:12:17;;;;;;;0.83;0.80;;;;;;;16.21;63.73;102115.63;20174811;29;20059;-94
2023/01/26 11:22:42;;;;;;;2.22;1.17;;;;;;;16.28;63.71;102127.72;20173908;29;20057;-96
2023/01/26 11:33:00;;;;;;;1.55;1.00;;;;;;;16.28;63.80;102119.66;20172520;29;20523;-94
2023/01/26 11:43:04;;;;;;;1.60;1.00;;;;;;;16.29;63.80;102115.16;20169671;29;20044;-94
2023/01/26 11:53:45;;;;;;;2.28;1.20;;;;;;;16.04;63.74;102073.69;20170098;29;20105;-92
2023/01/26 12:03:49;;;;;;;1.40;1.10;;;;;;;16.28;63.65;102095.47;20200664;29;20415;-96
2023/01/26 12:14:07;;;;;;;1.58;1.00;;;;;;;16.28;63.85;102086.56;20200304;29;20135;-90
2023/01/26 12:24:13;;;;;;;1.80;0.90;;;;;;;16.22;63.94;102077.03;20190599;29;20427;-94
2023/01/26 12:34:35;;;;;;;1.27;0.65;;;;;;;16.12;63.87;102043.66;20172095;29;20162;-94
2023/01/26 12:44:45;;;;;;;1.35;1.02;;;;;;;16.28;63.94;102052.47;20165818;29;20057;-91
2023/01/26 12:54:57;;;;;;;1.73;0.98;;;;;;;16.27;63.84;102048.06;20159872;29;20053;-94
2023/01/26 13:05:00;;;;;;;1.40;0.85;;;;;;;16.28;63.95;102051.63;20184459;29;20075;-95
2023/01/26 13:15:05;;;;;;;1.20;0.90;;;;;;;16.21;64.11;102024.28;20194428;29;20053;-94
2023/01/26 13:25:15;;;;;;;1.98;1.55;;;;;;;16.27;63.95;102034.63;20166120;29;20049;-95
2023/01/26 13:35:24;;;;;;;1.30;0.80;;;;;;;16.26;64.06;102027.53;20164597;29;20481;-94
2023/01/26 13:45:47;;;;;;;1.35;0.98;;;;;;;16.26;63.93;102032.91;20162822;29;20048;-94
2023/01/26 13:55:51;;;;;;;0.80;0.65;;;;;;;16.26;64.14;102032.91;20162565;29;20057;-94
2023/01/26 14:05:55;;;;;;;1.00;0.70;;;;;;;16.26;64.17;102030.22;20163745;29;20079;-94
2023/01/26 14:16:01;;;;;;;1.67;0.90;;;;;;;16.26;64.18;102037.44;20177351;29;20053;-94
2023/01/26 14:26:20;;;;;;;1.40;0.82;;;;;;;16.18;64.06;102035.22;20161922;29;20064;-94
2023/01/26 14:36:31;;;;;;;1.20;0.70;;;;;;;16.24;64.01;102035.69;20173878;29;20044;-95
2023/01/26 14:46:48;;;;;;;1.85;0.82;;;;;;;16.24;64.19;102034.81;20163746;29;20603;-94
2023/01/26 14:56:50;;;;;;;0.80;0.75;;;;;;;16.24;64.26;102043.75;20174254;29;20053;-94
2023/01/26 15:06:52;;;;;;;1.95;0.63;;;;;;;16.24;64.24;102040.19;20172282;29;20507;-94
2023/01/26 15:16:53;;;;;;;1.25;0.80;;;;;;;16.22;64.20;102032.25;20194742;29;20052;-96
2023/01/26 15:27:04;;;;;;;1.50;0.73;;;;;;;16.23;64.21;102035.78;20198258;29;20081;-95
2023/01/26 15:37:28;;;;;;;1.63;0.70;;;;;;;16.23;64.33;102033.09;20191331;29;20049;-93
2023/01/26 15:47:30;;;;;;;1.33;0.60;;;;;;;16.23;64.35;102051.91;20199597;29;20140;-95
2023/01/26 15:57:31;;;;;;;1.92;0.90;;;;;;;16.22;64.50;102047.50;20173885;29;20071;-92
2023/01/26 16:07:33;;;;;;;2.00;0.88;;;;;;;16.23;64.58;102065.34;20149919;29;21173;-94
2023/01/26 16:17:35;;;;;;;1.58;0.80;;;;;;;16.24;64.35;102069.75;20223654;29;20060;-94
2023/01/26 16:27:36;;;;;;;1.45;0.63;;;;;;;16.22;64.26;102074.38;20204196;29;20065;-88
2023/01/26 16:37:38;;;;;;;1.30;0.88;;;;;;;16.21;64.32;102078.00;20122723;29;20189;-89
2023/01/26 16:47:42;;;;;;;1.87;0.80;;;;;;;16.20;64.40;102076.28;20134726;29;20053;-90
2023/01/26 16:57:46;;;;;;;1.85;0.68;;;;;;;16.20;64.22;102089.72;20130360;29;20057;-90
2023/01/26 17:07:49;;;;;;;1.10;0.60;;;;;;;16.07;64.54;102066.31;20130696;29;20064;-88
2023/01/26 17:17:51;;;;;;;1.90;0.82;;;;;;;16.13;64.42;102086.56;20133832;29;20052;-87
2023/01/26 17:27:52;;;;;;;2.42;0.55;;;;;;;15.90;64.61;102058.41;20123533;29;20049;-92
2023/01/26 17:37:54;;;;;;;1.92;0.73;;;;;;;16.06;64.61;102069.09;20127057;29;20045;-93
2023/01/26 17:47:56;;;;;;;2.42;1.02;;;;;;;16.19;64.77;102090.69;20133096;29;20448;-89
2023/01/26 17:57:57;;;;;;;1.85;0.60;;;;;;;16.18;65.03;102091.63;20145606;29;20045;-88
2023/01/26 18:07:59;;;;;;;5.15;1.25;;;;;;;16.19;64.90;102090.69;20134364;29;20136;-90
2023/01/26 18:18:02;;;;;;;1.83;0.70;;;;;;;16.17;65.09;102095.28;20122890;29;21911;-90
2023/01/26 18:28:03;;;;;;;1.05;0.60;;;;;;;16.18;65.24;102094.31;20145793;29;20468;-93
2023/01/26 18:38:08;;;;;;;1.13;0.63;;;;;;;16.18;64.99;102099.69;20127222;29;20095;-89
2023/01/26 18:48:09;;;;;;;1.38;0.63;;;;;;;16.16;65.06;102112.38;20135390;29;20090;-89
2023/01/26 18:58:11;;;;;;;1.40;0.90;;;;;;;16.17;65.01;102111.41;20134167;29;20147;-90
2023/01/26 19:08:13;;;;;;;1.73;0.55;;;;;;;16.02;65.43;102106.03;20154216;29;20108;-88
2023/01/26 19:18:15;;;;;;;1.27;0.60;;;;;;;16.16;65.39;102112.38;20204911;29;20060;-89
2023/01/26 19:28:17;;;;;;;2.05;0.90;;;;;;;15.88;65.06;102077.31;20196104;29;20412;-90
2023/01/26 19:38:19;;;;;;;0.88;0.60;;;;;;;16.11;65.36;102131.44;20177352;29;20724;-88
2023/01/26 19:48:23;;;;;;;3.40;0.75;;;;;;;16.16;65.38;102133.84;20214885;29;20080;-89
2023/01/26 19:58:26;;;;;;;0.65;0.40;;;;;;;16.14;65.46;102142.03;20166208;29;20045;-89
2023/01/26 20:08:28;;;;;;;1.50;0.50;;;;;;;16.15;65.56;102138.38;20166773;29;20053;-89
2023/01/26 20:18:29;;;;;;;1.48;0.60;;;;;;;16.14;65.46;102141.16;20094184;29;20101;-90
2023/01/26 20:28:31;;;;;;;1.33;0.50;;;;;;;16.14;65.42;102146.53;20115677;29;20515;-89
2023/01/26 20:38:34;;;;;;;1.80;0.50;;;;;;;16.13;65.38;102139.41;20203614;29;20154;-88
2023/01/26 20:48:35;;;;;;;1.40;0.50;;;;;;;15.99;65.46;102138.44;20196165;29;20049;-90
2023/01/26 20:58:38;;;;;;;1.45;0.70;;;;;;;16.02;65.21;102154.38;20186984;29;20061;-86
2023/01/26 21:08:40;;;;;;;1.42;0.55;;;;;;;16.13;65.46;102179.72;20170014;29;20057;-88
2023/01/26 21:18:42;;;;;;;0.65;0.30;;;;;;;16.12;65.47;102164.56;20161660;29;20049;-87
2023/01/26 21:28:51;;;;;;;1.17;0.55;;;;;;;16.13;65.29;102171.66;20159808;29;20065;-86
2023/01/26 21:38:55;;;;;;;0.40;0.40;;;;;;;16.13;65.26;102187.78;20206680;29;20523;-89
2023/01/26 21:48:57;;;;;;;0.75;0.50;;;;;;;16.02;65.60;102164.25;20182631;29;20045;-89
2023/01/26 21:59:03;;;;;;;1.05;0.50;;;;;;;16.13;65.51;102193.16;20162898;29;20104;-90
2023/01/26 22:09:05;;;;;;;0.75;0.50;;;;;;;16.13;65.32;102203.91;20167635;29;20056;-89
2023/01/26 22:19:09;;;;;;;0.55;0.40;;;;;;;16.12;65.34;102213.75;20167946;29;20181;-89
2023/01/26 22:29:14;;;;;;;1.27;0.52;;;;;;;16.12;65.41;102223.66;20174769;29;20071;-89
2023/01/26 22:39:15;;;;;;;1.60;0.50;;;;;;;16.04;65.29;102216.94;20179660;29;20053;-89
2023/01/26 22:49:17;;;;;;;2.05;0.50;;;;;;;16.04;65.37;102214.25;20175758;29;20063;-90
2023/01/26 22:59:19;;;;;;;0.85;0.50;;;;;;;16.12;65.22;102232.56;20207305;29;20060;-89
2023/01/26 23:09:20;;;;;;;0.68;0.55;;;;;;;15.97;65.16;102223.63;20192545;29;20049;-90
2023/01/26 23:19:32;;;;;;;0.63;0.40;;;;;;;16.12;65.40;102246.00;20177148;29;20088;-89
2023/01/26 23:29:35;;;;;;;0.60;0.40;;;;;;;15.60;65.19;102177.44;20196490;29;20080;-89
2023/01/26 23:39:36;;;;;;;1.52;0.50;;;;;;;16.11;65.33;102248.81;20200709;29;20088;-89
2023/01/26 23:49:38;;;;;;;0.95;0.40;;;;;;;15.92;65.17;102220.38;20195056;29;20121;-89
2023/01/26 23:59:39;;;;;;;0.80;0.40;;;;;;;16.11;65.17;102256.84;20191415;29;20108;-90
